Time;durP1;ratioP1;P1;durP2;ratioP2;P2;SDS_P1;SDS_P2;PMS_P1;PMS_P2;Temp;Humidity;BMP_temperature;BMP_pressure;BME280_temperature;BME280_humidity;BME280_pressure;Samples;Min_cycle;Max_cycle;Signal;HPM_P1;HPM_P2
2023/07/19 00:02:41;;;;;;;5.00;3.58;;;;;;;18.63;100.00;97624.19;18416236;32;20437;-58
2023/07/19 00:12:44;;;;;;;5.53;3.63;;;;;;;18.55;100.00;97616.00;18417540;32;20049;-58
2023/07/19 00:22:58;;;;;;;4.30;3.33;;;;;;;18.49;100.00;97625.50;18429924;32;20508;-58
2023/07/19 00:33:00;;;;;;;5.87;3.17;;;;;;;18.38;100.00;97623.09;18441654;32;20425;-58
2023/07/19 00:43:09;;;;;;;5.75;3.37;;;;;;;18.25;100.00;97613.94;18427038;32;20147;-58
2023/07/19 00:53:12;;;;;;;4.93;3.05;;;;;;;18.17;100.00;97614.72;18434072;32;20353;-58
2023/07/19 01:03:14;;;;;;;5.73;3.93;;;;;;;18.10;100.00;97622.59;18425765;32;20068;-58
2023/07/19 01:13:17;;;;;;;7.12;3.70;;;;;;;18.00;100.00;97618.22;18439505;32;20359;-58
2023/07/19 01:23:20;;;;;;;5.00;3.30;;;;;;;17.91;100.00;97607.28;18424747;32;20068;-58
2023/07/19 01:33:22;;;;;;;5.93;3.80;;;;;;;17.87;100.00;97614.50;18438063;32;20041;-58
2023/07/19 01:43:35;;;;;;;4.20;3.40;;;;;;;17.87;100.00;97603.56;18437380;32;20075;-58
2023/07/19 01:53:38;;;;;;;6.90;3.87;;;;;;;17.86;100.00;97617.56;18436926;32;20365;-58
2023/07/19 02:03:41;;;;;;;5.97;3.53;;;;;;;17.84;100.00;97617.88;18436212;32;20046;-58
2023/07/19 02:13:44;;;;;;;6.03;3.53;;;;;;;17.80;100.00;97636.00;18421413;32;20045;-58
2023/07/19 02:23:46;;;;;;;8.38;3.65;;;;;;;17.84;100.00;97626.09;18420555;32;20084;-58
2023/07/19 02:33:49;;;;;;;5.37;3.47;;;;;;;17.87;100.00;97633.63;18434354;32;20523;-58
2023/07/19 02:43:52;;;;;;;4.50;3.10;;;;;;;17.82;100.00;97636.53;18432972;32;20346;-58
2023/07/19 02:53:55;;;;;;;4.80;3.60;;;;;;;17.77;100.00;97647.59;18433399;32;20068;-58
2023/07/19 03:03:59;;;;;;;4.47;3.70;;;;;;;17.75;100.00;97650.66;18432858;32;20080;-58
2023/07/19 03:14:02;;;;;;;5.07;3.58;;;;;;;17.78;100.00;97655.47;18432193;32;20522;-58
2023/07/19 03:24:04;;;;;;;6.05;3.30;;;;;;;17.83;100.00;97668.22;18418013;32;20076;-58
2023/07/19 03:34:07;;;;;;;8.07;4.47;;;;;;;17.77;100.00;97653.91;18431300;32;20045;-58
2023/07/19 03:44:10;;;;;;;5.62;3.90;;;;;;;17.65;100.00;97667.38;18429601;32;20065;-58
2023/07/19 03:54:13;;;;;;;6.68;4.05;;;;;;;17.63;100.00;97675.06;18413968;32;20061;-58
2023/07/19 04:04:17;;;;;;;9.23;3.83;;;;;;;17.56;100.00;97683.72;18443453;32;20049;-58
2023/07/19 04:14:20;;;;;;;6.82;3.75;;;;;;;17.54;100.00;97694.19;18442779;32;20523;-58
2023/07/19 04:24:22;;;;;;;5.50;3.60;;;;;;;17.50;100.00;97690.47;18442240;32;20057;-58
2023/07/19 04:34:25;;;;;;;6.55;3.53;;;;;;;17.52;100.00;97684.69;18435003;32;20079;-58
2023/07/19 04:44:28;;;;;;;6.80;3.30;;;;;;;17.59;100.00;97682.28;18427580;32;20078;-58
2023/07/19 04:54:31;;;;;;;4.40;3.73;;;;;;;17.73;100.00;97699.41;18440570;32;20054;-58
2023/07/19 05:04:34;;;;;;;4.93;3.37;;;;;;;17.91;100.00;97703.03;18439452;32;20433;-58
2023/07/19 05:14:37;;;;;;;6.97;3.80;;;;;;;18.11;100.00;97723.50;18439708;32;20050;-58
2023/07/19 05:24:40;;;;;;;6.30;3.50;;;;;;;18.37;100.00;97743.84;18418472;32;20072;-58
2023/07/19 05:34:43;;;;;;;4.20;3.17;;;;;;;18.60;100.00;97767.25;18424192;32;20049;-58
2023/07/19 05:44:46;;;;;;;4.87;3.47;;;;;;;18.83;100.00;97750.66;18437391;32;20113;-58
2023/07/19 05:54:49;;;;;;;4.80;3.70;;;;;;;19.08;100.00;97748.28;18423165;32;20086;-58
2023/07/19 06:04:52;;;;;;;4.97;3.50;;;;;;;19.46;100.00;97736.59;18436215;32;20045;-58
2023/07/19 06:14:55;;;;;;;6.15;4.15;;;;;;;19.93;100.00;97733.84;18422068;32;20425;-58
2023/07/19 06:24:58;;;;;;;;;;;;;;;20.49;100.00;97738.37;18395989;32;20053;-58
2023/07/19 06:35:02;;;;;;;4.75;4.12;;;;;;;21.14;100.00;97729.78;18434809;32;19948;-58
2023/07/19 06:45:06;;;;;;;6.30;4.15;;;;;;;21.81;100.00;97724.22;18419728;32;20060;-58
2023/07/19 06:55:09;;;;;;;8.30;4.93;;;;;;;22.49;100.00;97734.66;18432991;32;20050;-58
2023/07/19 07:05:12;;;;;;;6.87;4.30;;;;;;;23.06;100.00;97731.16;18432729;32;20388;-58
2023/07/19 07:15:16;;;;;;;5.55;3.83;;;;;;;23.43;100.00;97737.31;18425469;32;20045;-58
2023/07/19 07:25:19;;;;;;;4.12;3.55;;;;;;;23.82;100.00;97742.28;18431668;32;20053;-58
2023/07/19 07:35:22;;;;;;;6.50;3.65;;;;;;;24.21;100.00;97739.69;18431619;32;20357;-59
2023/07/19 07:45:25;;;;;;;6.35;3.65;;;;;;;24.29;100.00;97741.44;18417417;32;20096;-58
2023/07/19 07:55:29;;;;;;;4.95;3.58;;;;;;;24.40;100.00;97738.16;18430751;32;20065;-58
2023/07/19 08:05:32;;;;;;;4.47;3.50;;;;;;;24.44;100.00;97720.47;18423885;32;20109;-58
2023/07/19 08:15:36;;;;;;;6.32;3.53;;;;;;;24.90;100.00;97714.37;18416033;32;20042;-58
2023/07/19 08:25:41;;;;;;;5.95;3.85;;;;;;;25.01;100.00;97709.84;18429952;32;20083;-58
2023/07/19 08:35:45;;;;;;;4.95;3.80;;;;;;;25.69;95.13;97693.69;18433042;32;20063;-58
2023/07/19 08:45:48;;;;;;;5.10;3.45;;;;;;;26.22;98.53;97694.94;18427298;32;20128;-58
2023/07/19 08:55:53;;;;;;;5.72;3.40;;;;;;;26.37;88.49;97685.66;18440653;32;20136;-58
2023/07/19 09:05:57;;;;;;;2.87;2.50;;;;;;;26.44;83.00;97673.88;18439815;32;20053;-58
2023/07/19 09:16:03;;;;;;;4.10;2.15;;;;;;;26.31;73.65;97678.03;18439597;32;20405;-59
2023/07/19 09:26:07;;;;;;;4.65;2.45;;;;;;;26.41;69.07;97684.91;18424680;32;20054;-59
2023/07/19 09:36:17;;;;;;;4.37;2.65;;;;;;;26.68;65.88;97685.66;18438233;32;20065;-58
2023/07/19 09:46:22;;;;;;;4.20;2.33;;;;;;;26.95;65.54;97686.41;18422906;32;20091;-59
2023/07/19 09:56:25;;;;;;;5.03;2.90;;;;;;;27.19;63.57;97687.09;18437018;32;20353;-59
2023/07/19 10:06:30;;;;;;;5.20;2.85;;;;;;;27.38;57.73;97689.69;18421802;32;20438;-59
2023/07/19 10:16:36;;;;;;;5.43;3.80;;;;;;;27.54;62.63;97681.09;18421388;32;20066;-58
2023/07/19 10:26:39;;;;;;;5.53;3.20;;;;;;;27.60;60.02;97676.00;18435197;32;20330;-59
2023/07/19 10:36:47;;;;;;;3.90;3.22;;;;;;;27.36;59.72;97672.59;18420568;32;20057;-59
2023/07/19 10:46:55;;;;;;;3.65;3.20;;;;;;;27.65;65.44;97678.41;18414362;32;20085;-58
2023/07/19 10:56:58;;;;;;;5.97;3.33;;;;;;;27.80;58.32;97676.53;18432457;32;20061;-59
2023/07/19 11:07:03;;;;;;;6.37;3.42;;;;;;;28.18;65.59;97676.47;18432588;32;20092;-59
2023/07/19 11:17:07;;;;;;;4.97;3.28;;;;;;;28.45;58.11;97662.28;18432718;32;20507;-59
2023/07/19 11:27:12;;;;;;;4.25;2.97;;;;;;;28.56;52.30;97654.81;18431754;32;20054;-59
2023/07/19 11:37:27;;;;;;;7.53;3.40;;;;;;;28.96;58.54;97658.56;18431820;32;20067;-59
2023/07/19 11:47:35;;;;;;;7.05;3.42;;;;;;;29.20;52.38;97648.69;18417380;32;20044;-59
2023/07/19 11:57:40;;;;;;;7.20;3.40;;;;;;;29.31;58.07;97648.72;18431236;32;20392;-58
2023/07/19 12:07:44;;;;;;;4.75;3.53;;;;;;;29.62;50.86;97631.63;18416470;32;20331;-59
2023/07/19 12:17:47;;;;;;;5.43;3.40;;;;;;;29.93;54.31;97621.69;18442466;32;20061;-58
2023/07/19 12:27:52;;;;;;;5.35;3.30;;;;;;;30.15;47.09;97627.19;18442825;32;20106;-58
2023/07/19 12:37:55;;;;;;;6.43;3.25;;;;;;;30.47;48.66;97615.97;18435163;32;20104;-59
2023/07/19 12:47:57;;;;;;;4.15;2.87;;;;;;;30.55;46.35;97611.94;18440826;32;20443;-59
2023/07/19 12:58:01;;;;;;;5.32;3.17;;;;;;;30.72;47.37;97596.31;18426512;32;20084;-58
2023/07/19 13:08:04;;;;;;;4.30;2.55;;;;;;;30.93;51.24;97609.38;18426167;32;20061;-59
2023/07/19 13:18:08;;;;;;;4.53;3.08;;;;;;;31.21;44.38;97604.03;18425102;32;20053;-59
2023/07/19 13:28:11;;;;;;;3.75;2.90;;;;;;;31.49;46.85;97599.41;18438358;32;20045;-59
2023/07/19 13:38:16;;;;;;;6.28;2.85;;;;;;;32.05;46.90;97596.53;18437676;32;20108;-59
2023/07/19 13:48:21;;;;;;;3.45;2.50;;;;;;;32.25;42.27;97577.94;18423623;32;20094;-59
2023/07/19 13:58:24;;;;;;;7.65;2.75;;;;;;;32.52;38.26;97582.81;18437073;32;20045;-59
2023/07/19 14:08:27;;;;;;;6.37;3.10;;;;;;;33.09;39.29;97586.84;18436236;32;20433;-59
2023/07/19 14:18:31;;;;;;;4.05;2.97;;;;;;;33.08;45.60;97592.84;18409069;32;20075;-59
2023/07/19 14:28:34;;;;;;;3.28;2.97;;;;;;;33.55;39.20;97589.34;18414489;32;20060;-59
2023/07/19 14:38:37;;;;;;;11.00;3.55;;;;;;;34.08;40.61;97573.59;18433548;32;20380;-59
2023/07/19 14:48:41;;;;;;;5.12;3.22;;;;;;;34.51;38.55;97571.94;18419848;32;20112;-59
2023/07/19 14:58:44;;;;;;;4.07;3.50;;;;;;;34.47;39.46;97576.84;18433279;32;20064;-59
2023/07/19 15:08:48;;;;;;;5.72;4.18;;;;;;;33.59;36.81;97567.63;18432444;32;20168;-59
2023/07/19 15:18:51;;;;;;;5.00;3.90;;;;;;;31.79;39.65;97567.25;18418805;32;20438;-58
2023/07/19 15:28:55;;;;;;;5.05;3.47;;;;;;;31.04;43.02;97549.88;18416589;32;20057;-58
2023/07/19 15:38:58;;;;;;;4.53;3.58;;;;;;;30.59;44.80;97551.34;18431071;32;20045;-58
2023/07/19 15:49:02;;;;;;;6.05;3.75;;;;;;;30.24;42.74;97543.91;18446737;32;20053;-58
2023/07/19 15:59:06;;;;;;;4.87;3.78;;;;;;;29.91;47.39;97534.88;18452389;32;20053;-58
2023/07/19 16:09:09;;;;;;;10.10;3.95;;;;;;;29.71;49.45;97535.28;18437985;32;20072;-58
2023/07/19 16:19:12;;;;;;;5.60;3.90;;;;;;;29.45;50.27;97535.72;18445433;32;20114;-58
2023/07/19 16:29:15;;;;;;;4.50;3.70;;;;;;;29.12;49.40;97540.47;18451565;32;20053;-58
2023/07/19 16:39:18;;;;;;;5.18;3.90;;;;;;;29.14;49.32;97538.09;18436653;32;20045;-58
2023/07/19 16:49:24;;;;;;;6.37;3.92;;;;;;;28.70;51.24;97528.91;18436470;32;20120;-58
2023/07/19 16:59:27;;;;;;;5.40;3.70;;;;;;;28.90;49.75;97529.31;18429782;32;20083;-58
2023/07/19 17:09:31;;;;;;;4.10;3.67;;;;;;;30.53;47.22;97538.22;18425822;32;20041;-58
2023/07/19 17:19:35;;;;;;;5.35;3.97;;;;;;;29.60;48.96;97534.50;18425463;32;20068;-58
2023/07/19 17:29:38;;;;;;;5.15;3.50;;;;;;;28.34;51.03;97540.72;18438791;32;20373;-58
2023/07/19 17:39:47;;;;;;;4.47;3.20;;;;;;;27.89;51.08;97540.09;18438088;32;20064;-58
2023/07/19 17:49:50;;;;;;;4.93;3.50;;;;;;;27.48;52.39;97548.56;18437686;32;20050;-58
2023/07/19 17:59:54;;;;;;;5.40;3.28;;;;;;;27.12;51.24;97551.00;18422702;32;20049;-58
2023/07/19 18:09:57;;;;;;;5.43;3.10;;;;;;;26.69;57.21;97554.13;18428624;32;20072;-58
2023/07/19 18:20:00;;;;;;;4.85;3.53;;;;;;;26.43;57.39;97568.91;18435835;32;20065;-58
2023/07/19 18:30:05;;;;;;;3.83;3.10;;;;;;;25.74;60.48;97567.97;18434981;32;20094;-58
2023/07/19 18:40:10;;;;;;;6.18;3.05;;;;;;;25.11;68.44;97566.56;18434052;32;20072;-58
2023/07/19 18:50:14;;;;;;;4.28;2.87;;;;;;;24.65;77.24;97575.59;18419851;32;20094;-58
2023/07/19 19:00:17;;;;;;;6.30;5.00;;;;;;;24.12;84.04;97576.09;18433269;32;20053;-58
2023/07/19 19:10:20;;;;;;;6.10;4.25;;;;;;;23.61;88.84;97591.53;18418568;32;20049;-58
2023/07/19 19:20:24;;;;;;;6.12;4.80;;;;;;;23.10;93.26;97588.66;18431927;32;20407;-58
2023/07/19 19:30:28;;;;;;;5.97;4.03;;;;;;;22.65;97.27;97602.47;18431810;32;20369;-58
2023/07/19 19:40:31;;;;;;;9.40;4.55;;;;;;;22.22;100.00;97603.97;18431320;32;20441;-57
2023/07/19 19:50:33;;;;;;;;;;;;;;;21.89;100.00;97599.44;18417082;32;20058;-57
2023/07/19 20:00:36;;;;;;;4.97;3.03;;;;;;;21.58;100.00;97606.34;18424460;32;19948;-58
2023/07/19 20:10:39;;;;;;;4.18;3.12;;;;;;;21.28;100.00;97616.72;18430654;32;20358;-58
2023/07/19 20:21:00;;;;;;;7.00;3.50;;;;;;;20.98;100.00;97620.47;18430317;32;20116;-57
2023/07/19 20:31:03;;;;;;;3.75;2.90;;;;;;;20.80;100.00;97630.03;18432383;32;20065;-58
2023/07/19 20:41:07;;;;;;;5.05;2.50;;;;;;;20.71;100.00;97623.84;18441296;32;20042;-58
2023/07/19 20:51:14;;;;;;;3.35;2.12;;;;;;;20.72;100.00;97634.47;18439944;32;20080;-57
2023/07/19 21:01:17;;;;;;;3.45;1.90;;;;;;;20.79;100.00;97655.94;18435849;32;20075;-58
2023/07/19 21:11:21;;;;;;;3.90;2.05;;;;;;;20.87;100.00;97667.94;18440076;32;20504;-58
2023/07/19 21:21:25;;;;;;;3.37;1.67;;;;;;;20.92;100.00;97657.56;18439234;32;20053;-58
2023/07/19 21:31:30;;;;;;;4.05;1.67;;;;;;;21.01;100.00;97675.91;18438825;32;20425;-58
2023/07/19 21:41:34;;;;;;;2.37;1.60;;;;;;;21.06;100.00;97678.44;18437716;32;20076;-57
2023/07/19 21:51:37;;;;;;;;;;;;;;;21.05;100.00;97679.56;18437662;32;20079;-57
2023/07/19 22:01:40;;;;;;;1.83;1.27;;;;;;;20.96;100.00;97680.47;18422897;32;20333;-58
2023/07/19 22:11:43;;;;;;;2.10;1.30;;;;;;;20.74;100.00;97678.09;18436321;32;20560;-57
2023/07/19 22:21:46;;;;;;;7.22;1.30;;;;;;;20.62;100.00;97662.34;18435746;32;20088;-58
2023/07/19 22:31:49;;;;;;;2.47;0.90;;;;;;;20.50;100.00;97682.31;18435108;32;20049;-57
2023/07/19 22:41:52;;;;;;;1.58;1.00;;;;;;;20.53;100.00;97692.63;18434251;32;20045;-57
2023/07/19 22:51:55;;;;;;;1.48;0.98;;;;;;;20.45;100.00;97699.00;18433332;32;20076;-57
2023/07/19 23:01:58;;;;;;;2.80;1.10;;;;;;;20.31;100.00;97708.28;18433621;32;20071;-57
2023/07/19 23:12:01;;;;;;;2.25;1.05;;;;;;;20.17;100.00;97710.47;18432673;32;20061;-58
2023/07/19 23:22:04;;;;;;;2.35;1.20;;;;;;;20.03;100.00;97718.16;18432379;32;20132;-57
2023/07/19 23:32:07;;;;;;;2.62;0.70;;;;;;;19.83;100.00;97704.06;18431829;32;20120;-57
2023/07/19 23:42:10;;;;;;;1.80;1.13;;;;;;;19.67;100.00;97717.47;18417098;32;20087;-57
2023/07/19 23:52:16;;;;;;;2.83;1.10;;;;;;;19.39;100.00;97697.88;18416796;32;20231;-57
